createdAt,value
2023-05-19T00:00:34.592Z,97.00
2023-05-19T00:03:03.524Z,97.10
2023-05-19T00:05:30.883Z,97.10
2023-05-19T00:08:01.204Z,97.30
2023-05-19T00:10:31.657Z,97.40
2023-05-19T00:12:59.312Z,97.60
2023-05-19T00:15:26.514Z,97.70
2023-05-19T00:17:55.587Z,97.80
2023-05-19T00:20:22.862Z,97.70
2023-05-19T00:22:51.154Z,97.70
2023-05-19T00:25:18.151Z,97.60
2023-05-19T00:27:45.407Z,97.50
2023-05-19T00:30:12.682Z,97.60
2023-05-19T00:32:39.679Z,97.50
2023-05-19T00:35:07.112Z,97.60
2023-05-19T00:37:34.163Z,97.80
2023-05-19T00:40:01.232Z,97.60
2023-05-19T00:42:28.243Z,97.80
2023-05-19T00:44:55.487Z,97.80
2023-05-19T00:47:22.431Z,97.90
2023-05-19T00:49:49.344Z,98.00
2023-05-19T00:52:16.704Z,98.30
2023-05-19T00:54:45.607Z,98.10
2023-05-19T00:57:14.452Z,98.10
2023-05-19T00:59:41.441Z,98.20
2023-05-19T01:02:08.439Z,98.30
2023-05-19T01:04:38.241Z,98.40
2023-05-19T01:07:05.723Z,98.50
2023-05-19T01:09:32.711Z,98.60
2023-05-19T01:12:01.283Z,98.60
2023-05-19T01:14:28.982Z,98.70
2023-05-19T01:17:28.654Z,98.70
2023-05-19T01:20:14.714Z,98.80
2023-05-19T01:22:47.489Z,98.90
2023-05-19T01:25:39.351Z,99.00
2023-05-19T01:28:32.503Z,99.20
2023-05-19T01:31:01.415Z,99.20
2023-05-19T01:33:31.056Z,99.30
2023-05-19T01:35:59.317Z,99.80
2023-05-19T01:38:28.424Z,99.80
2023-05-19T01:40:57.313Z,99.90
2023-05-19T01:43:26.281Z,99.90
2023-05-19T01:45:54.675Z,99.90
2023-05-19T01:48:22.808Z,99.90
2023-05-19T01:50:49.784Z,99.90
2023-05-19T01:53:17.165Z,99.90
2023-05-19T01:55:48.133Z,99.90
2023-05-19T01:58:21.250Z,99.90
2023-05-19T02:01:09.544Z,99.90
2023-05-19T02:04:00.813Z,99.90
2023-05-19T02:06:36.806Z,99.90
2023-05-19T02:09:12.199Z,99.90
2023-05-19T02:11:56.136Z,99.90
2023-05-19T02:14:59.976Z,99.90
2023-05-19T02:17:33.059Z,99.90
2023-05-19T02:19:59.984Z,99.90
2023-05-19T02:22:26.848Z,99.90
2023-05-19T02:24:53.869Z,99.90
2023-05-19T02:27:21.300Z,99.90
2023-05-19T02:29:48.380Z,99.90
2023-05-19T02:32:15.746Z,99.90
2023-05-19T02:34:45.683Z,99.90
2023-05-19T02:37:16.486Z,99.90
2023-05-19T02:39:44.463Z,99.90
2023-05-19T02:42:12.510Z,99.90
2023-05-19T02:44:39.422Z,99.90
2023-05-19T02:47:06.331Z,99.90
2023-05-19T02:49:36.126Z,99.90
2023-05-19T02:52:04.034Z,99.90
2023-05-19T02:54:31.678Z,99.90
2023-05-19T02:56:59.178Z,99.90
2023-05-19T02:59:26.206Z,99.90
2023-05-19T03:01:56.402Z,99.90
2023-05-19T03:04:23.336Z,99.90
2023-05-19T03:06:50.218Z,99.90
2023-05-19T03:09:17.145Z,99.90
2023-05-19T03:11:44.032Z,99.90
2023-05-19T03:14:12.005Z,99.90
2023-05-19T03:16:41.348Z,99.90
2023-05-19T03:19:08.945Z,99.90
2023-05-19T03:21:35.886Z,99.90
2023-05-19T03:24:03.082Z,99.90
2023-05-19T03:26:29.995Z,99.90
2023-05-19T03:28:56.953Z,99.90
2023-05-19T03:31:24.466Z,99.90
2023-05-19T03:33:51.356Z,99.90
2023-05-19T03:36:18.217Z,99.90
2023-05-19T03:38:45.099Z,99.90
2023-05-19T03:41:11.954Z,99.90
2023-05-19T03:43:38.872Z,99.90
2023-05-19T03:46:05.928Z,99.90
2023-05-19T03:48:32.844Z,99.90
2023-05-19T03:50:59.751Z,99.90
2023-05-19T03:53:26.676Z,99.90
2023-05-19T03:55:53.615Z,99.90
2023-05-19T03:58:20.462Z,99.90
2023-05-19T04:00:47.359Z,99.90
2023-05-19T04:03:14.344Z,99.90
2023-05-19T04:05:41.400Z,99.90
2023-05-19T04:08:08.304Z,99.90
2023-05-19T04:10:35.203Z,99.90
2023-05-19T04:13:02.138Z,99.90
2023-05-19T04:15:29.276Z,99.90
2023-05-19T04:17:56.323Z,99.90
2023-05-19T04:20:23.330Z,99.90
2023-05-19T04:22:50.216Z,99.90
2023-05-19T04:25:17.213Z,99.90
2023-05-19T04:27:44.105Z,99.90
2023-05-19T04:30:12.201Z,99.90
2023-05-19T04:32:39.725Z,99.90
2023-05-19T04:35:07.105Z,99.90
2023-05-19T04:37:38.391Z,99.90
2023-05-19T04:40:06.376Z,99.90
2023-05-19T04:42:33.268Z,99.90
2023-05-19T04:45:00.129Z,99.90
2023-05-19T04:47:28.223Z,99.90
2023-05-19T04:49:55.640Z,99.90
2023-05-19T04:52:22.880Z,99.90
2023-05-19T04:54:49.726Z,99.90
2023-05-19T04:57:16.609Z,99.90
2023-05-19T04:59:43.885Z,99.90
2023-05-19T05:02:10.934Z,99.90
2023-05-19T05:04:42.401Z,99.90
2023-05-19T05:07:09.911Z,99.90
2023-05-19T05:09:36.924Z,99.90
2023-05-19T05:12:04.243Z,99.90
2023-05-19T05:14:31.378Z,99.90
2023-05-19T05:16:58.578Z,99.90
2023-05-19T05:19:25.923Z,99.90
2023-05-19T05:21:53.258Z,99.90
2023-05-19T05:24:20.490Z,99.90
2023-05-19T05:26:47.594Z,99.90
2023-05-19T05:29:14.475Z,99.90
2023-05-19T05:31:41.342Z,99.90
2023-05-19T05:34:08.289Z,99.90
2023-05-19T05:36:35.270Z,99.90
2023-05-19T05:39:02.550Z,99.90
2023-05-19T05:41:35.125Z,99.90
2023-05-19T05:44:02.581Z,99.90
2023-05-19T05:46:29.991Z,99.90
2023-05-19T05:48:57.150Z,99.90
2023-05-19T05:51:24.753Z,99.90
2023-05-19T05:53:55.756Z,99.90
2023-05-19T05:56:22.997Z,99.90
2023-05-19T05:58:50.604Z,99.90
2023-05-19T06:01:17.957Z,99.90
2023-05-19T06:03:45.257Z,99.90
2023-05-19T06:06:12.477Z,99.90
2023-05-19T06:08:39.396Z,99.90
2023-05-19T06:11:08.872Z,99.90
2023-05-19T06:13:36.338Z,99.90
2023-05-19T06:16:03.551Z,99.90
2023-05-19T06:18:30.552Z,99.90
2023-05-19T06:20:57.690Z,99.90
2023-05-19T06:23:26.720Z,99.90
2023-05-19T06:25:53.712Z,99.90
2023-05-19T06:28:20.984Z,99.90
2023-05-19T06:30:47.985Z,99.90
2023-05-19T06:33:14.918Z,99.90
2023-05-19T06:35:41.888Z,99.90
2023-05-19T06:38:08.796Z,99.90
2023-05-19T06:40:37.032Z,99.90
2023-05-19T06:43:04.890Z,99.90
2023-05-19T06:45:31.940Z,99.90
2023-05-19T06:47:58.999Z,99.90
2023-05-19T06:50:26.127Z,99.90
2023-05-19T06:52:53.349Z,99.90
2023-05-19T06:55:20.505Z,99.90
2023-05-19T06:57:47.487Z,99.90
2023-05-19T07:00:17.600Z,99.90
2023-05-19T07:02:45.962Z,99.90
2023-05-19T07:05:13.030Z,99.90
2023-05-19T07:07:40.035Z,99.90
2023-05-19T07:10:07.479Z,99.90
2023-05-19T07:12:34.369Z,99.90
2023-05-19T07:15:01.323Z,99.90
2023-05-19T07:17:28.241Z,99.90
2023-05-19T07:19:55.160Z,99.90
2023-05-19T07:22:24.187Z,99.90
2023-05-19T07:24:51.420Z,99.90
2023-05-19T07:27:18.732Z,99.90
2023-05-19T07:29:45.634Z,99.90
2023-05-19T07:32:12.523Z,99.90
2023-05-19T07:34:40.542Z,99.90
2023-05-19T07:37:07.647Z,99.90
2023-05-19T07:39:35.681Z,99.90
2023-05-19T07:42:02.711Z,99.90
2023-05-19T07:44:31.426Z,99.90
2023-05-19T07:46:58.632Z,99.90
2023-05-19T07:49:25.675Z,99.90
2023-05-19T07:51:53.111Z,99.90
2023-05-19T07:54:20.609Z,99.90
2023-05-19T07:56:48.342Z,99.90
2023-05-19T07:59:16.205Z,99.90
2023-05-19T08:01:43.391Z,99.90
2023-05-19T08:04:12.804Z,99.90
2023-05-19T08:06:42.712Z,99.90
2023-05-19T08:09:09.677Z,99.90
2023-05-19T08:11:37.070Z,99.90
2023-05-19T08:14:04.086Z,99.80
2023-05-19T08:16:31.563Z,99.70
2023-05-19T08:19:01.056Z,99.60
2023-05-19T08:21:28.171Z,99.40
2023-05-19T08:23:55.293Z,99.50
2023-05-19T08:26:22.870Z,99.20
2023-05-19T08:28:49.766Z,99.30
2023-05-19T08:31:18.479Z,99.40
2023-05-19T08:33:45.847Z,99.50
2023-05-19T08:36:12.858Z,99.00
2023-05-19T08:38:39.748Z,99.00
2023-05-19T08:41:06.821Z,98.60
2023-05-19T08:43:33.909Z,98.50
2023-05-19T08:46:01.077Z,97.80
2023-05-19T08:48:33.177Z,98.30
2023-05-19T08:51:25.473Z,97.90
2023-05-19T08:53:58.207Z,97.20
2023-05-19T08:56:26.718Z,97.50
2023-05-19T08:58:54.105Z,97.30
2023-05-19T09:01:23.130Z,98.00
2023-05-19T09:03:50.630Z,97.40
2023-05-19T09:06:17.755Z,96.80
2023-05-19T09:08:44.904Z,96.80
2023-05-19T09:11:12.566Z,96.80
2023-05-19T09:13:39.521Z,97.00
2023-05-19T09:16:06.989Z,96.90
2023-05-19T09:18:34.351Z,96.50
2023-05-19T09:21:04.820Z,96.90
2023-05-19T09:23:36.054Z,96.00
2023-05-19T09:26:05.045Z,96.50
2023-05-19T09:28:34.391Z,96.30
2023-05-19T09:31:08.682Z,96.00
2023-05-19T09:33:45.932Z,96.20
2023-05-19T09:36:14.179Z,96.00
2023-05-19T09:38:41.514Z,96.30
2023-05-19T09:41:09.465Z,95.70
2023-05-19T09:43:36.886Z,95.60
2023-05-19T09:46:11.832Z,95.70
2023-05-19T09:48:39.881Z,96.00
2023-05-19T09:51:10.296Z,95.60
2023-05-19T09:53:38.971Z,95.20
2023-05-19T09:56:08.718Z,95.50
2023-05-19T09:58:36.697Z,95.00
2023-05-19T10:01:05.116Z,94.80
2023-05-19T10:03:33.541Z,95.20
2023-05-19T10:06:05.350Z,94.90
2023-05-19T10:08:34.279Z,95.20
2023-05-19T10:11:01.761Z,93.70
2023-05-19T10:13:30.768Z,93.70
2023-05-19T10:15:59.976Z,93.30
2023-05-19T10:18:29.688Z,92.60
2023-05-19T10:20:58.535Z,93.50
2023-05-19T10:23:26.165Z,93.80
2023-05-19T10:25:57.658Z,93.90
2023-05-19T10:28:32.102Z,93.40
2023-05-19T10:31:01.924Z,93.10
2023-05-19T10:33:53.550Z,93.20
2023-05-19T10:36:41.504Z,93.20
2023-05-19T10:39:17.273Z,93.30
2023-05-19T10:41:50.725Z,93.30
2023-05-19T10:44:49.835Z,92.90
2023-05-19T10:47:24.572Z,92.80
2023-05-19T10:49:56.121Z,93.20
2023-05-19T10:52:29.850Z,93.30
2023-05-19T10:54:58.394Z,93.40
2023-05-19T10:57:31.816Z,93.00
2023-05-19T11:00:08.641Z,93.70
2023-05-19T11:02:45.044Z,91.40
2023-05-19T11:05:15.075Z,92.30
2023-05-19T11:07:44.242Z,91.70
2023-05-19T11:10:11.739Z,90.40
2023-05-19T11:12:46.354Z,90.30
2023-05-19T11:15:15.949Z,89.30
2023-05-19T11:17:46.322Z,89.00
2023-05-19T11:20:27.614Z,88.50
2023-05-19T11:23:21.915Z,87.20
2023-05-19T11:25:54.404Z,86.80
2023-05-19T11:28:26.299Z,84.70
2023-05-19T11:30:55.314Z,85.60
2023-05-19T11:33:27.262Z,83.50
2023-05-19T11:35:58.368Z,83.10
2023-05-19T11:38:26.529Z,83.40
2023-05-19T11:40:54.477Z,83.90
2023-05-19T11:43:25.814Z,83.90
2023-05-19T11:45:54.848Z,80.70
2023-05-19T11:48:22.622Z,83.30
2023-05-19T11:50:50.404Z,82.80
2023-05-19T11:53:19.850Z,83.40
2023-05-19T11:55:48.584Z,83.10
2023-05-19T11:58:16.652Z,81.70
2023-05-19T12:00:46.326Z,81.40
2023-05-19T12:03:13.576Z,81.00
2023-05-19T12:05:45.715Z,79.10
2023-05-19T12:08:13.212Z,78.90
2023-05-19T12:10:40.822Z,78.40
2023-05-19T12:13:11.119Z,80.10
2023-05-19T12:15:38.992Z,80.40
2023-05-19T12:18:06.713Z,79.50
2023-05-19T12:20:36.128Z,77.10
2023-05-19T12:23:03.982Z,77.50
2023-05-19T12:25:31.933Z,77.20
2023-05-19T12:28:05.462Z,76.60
2023-05-19T12:30:33.850Z,77.50
2023-05-19T12:33:01.818Z,75.80
2023-05-19T12:35:30.675Z,76.00
2023-05-19T12:38:02.349Z,76.20
2023-05-19T12:40:30.191Z,74.10
2023-05-19T12:42:59.211Z,73.30
2023-05-19T12:45:28.452Z,73.20
2023-05-19T12:47:56.279Z,73.60
2023-05-19T12:50:31.156Z,74.60
2023-05-19T12:52:59.825Z,75.80
2023-05-19T12:55:27.127Z,73.90
2023-05-19T12:57:57.221Z,75.50
2023-05-19T13:00:28.243Z,74.50
2023-05-19T13:03:10.171Z,74.70
2023-05-19T13:05:46.131Z,73.50
2023-05-19T13:08:14.072Z,75.80
2023-05-19T13:10:43.174Z,74.40
2023-05-19T13:13:11.313Z,73.30
2023-05-19T13:15:43.470Z,71.80
2023-05-19T13:18:12.618Z,71.20
2023-05-19T13:20:41.196Z,71.60
2023-05-19T13:23:10.074Z,71.30
2023-05-19T13:25:36.906Z,72.10
2023-05-19T13:28:05.953Z,71.60
2023-05-19T13:30:34.649Z,72.70
2023-05-19T13:33:02.478Z,71.60
2023-05-19T13:35:30.858Z,71.20
2023-05-19T13:37:57.930Z,70.90
2023-05-19T13:40:26.011Z,70.80
2023-05-19T13:42:53.025Z,71.60
2023-05-19T13:45:19.981Z,70.00
2023-05-19T13:47:46.970Z,70.10
2023-05-19T13:50:13.889Z,69.10
2023-05-19T13:52:41.231Z,68.90
2023-05-19T13:55:08.666Z,69.10
2023-05-19T13:57:35.742Z,68.40
2023-05-19T14:00:04.647Z,68.40
2023-05-19T14:02:32.462Z,66.20
2023-05-19T14:04:59.665Z,66.90
2023-05-19T14:07:27.210Z,67.20
2023-05-19T14:09:54.061Z,69.10
2023-05-19T14:12:27.554Z,69.60
2023-05-19T14:14:58.778Z,71.10
2023-05-19T14:17:27.529Z,72.40
2023-05-19T14:19:54.572Z,73.50
2023-05-19T14:22:21.505Z,74.50
2023-05-19T14:24:48.370Z,73.60
2023-05-19T14:27:16.094Z,73.30
2023-05-19T14:29:43.334Z,70.90
2023-05-19T14:32:10.465Z,70.70
2023-05-19T14:34:37.578Z,69.90
2023-05-19T14:37:04.793Z,71.30
2023-05-19T14:39:31.646Z,72.80
2023-05-19T14:42:01.663Z,74.30
2023-05-19T14:44:35.046Z,73.70
2023-05-19T14:47:02.530Z,73.90
2023-05-19T14:49:29.988Z,72.60
2023-05-19T14:51:56.898Z,70.70
2023-05-19T14:54:23.891Z,68.90
2023-05-19T14:56:50.881Z,65.60
2023-05-19T14:59:17.869Z,66.20
2023-05-19T15:01:44.960Z,65.90
2023-05-19T15:04:12.027Z,66.50
2023-05-19T15:06:39.012Z,65.80
2023-05-19T15:09:06.238Z,65.80
2023-05-19T15:11:33.276Z,67.20
2023-05-19T15:14:00.192Z,68.60
2023-05-19T15:16:27.158Z,69.40
2023-05-19T15:18:54.386Z,70.60
2023-05-19T15:21:21.485Z,72.00
2023-05-19T15:23:48.405Z,72.80
2023-05-19T15:26:15.741Z,73.00
2023-05-19T15:28:42.744Z,71.20
2023-05-19T15:31:09.812Z,71.90
2023-05-19T15:33:36.871Z,72.50
2023-05-19T15:36:04.021Z,71.70
2023-05-19T15:38:34.770Z,72.50
2023-05-19T15:41:06.801Z,74.70
2023-05-19T15:43:33.920Z,75.50
2023-05-19T15:46:01.015Z,74.40
2023-05-19T15:48:29.088Z,72.70
2023-05-19T15:50:58.167Z,71.50
2023-05-19T15:53:25.818Z,71.60
2023-05-19T15:55:52.789Z,72.00
2023-05-19T15:58:19.826Z,72.50
2023-05-19T16:00:46.806Z,72.80
2023-05-19T16:03:13.897Z,72.50
2023-05-19T16:05:40.939Z,74.50
2023-05-19T16:08:08.833Z,75.60
2023-05-19T16:10:36.083Z,76.20
2023-05-19T16:13:03.070Z,76.80
2023-05-19T16:15:30.023Z,76.40
2023-05-19T16:17:57.408Z,75.70
2023-05-19T16:20:27.876Z,74.30
2023-05-19T16:22:55.555Z,72.70
2023-05-19T16:25:23.175Z,71.60
2023-05-19T16:27:51.340Z,70.30
2023-05-19T16:30:19.163Z,70.60
2023-05-19T16:32:46.192Z,70.70
2023-05-19T16:35:13.210Z,72.60
2023-05-19T16:37:40.591Z,74.10
2023-05-19T16:40:08.334Z,74.70
2023-05-19T16:42:35.407Z,75.10
2023-05-19T16:45:02.568Z,74.40
2023-05-19T16:47:29.473Z,73.50
2023-05-19T16:49:56.466Z,74.50
2023-05-19T16:52:23.346Z,73.80
2023-05-19T16:54:50.426Z,73.40
2023-05-19T16:57:17.356Z,74.10
2023-05-19T16:59:44.226Z,74.30
2023-05-19T17:02:11.350Z,74.30
2023-05-19T17:04:38.280Z,75.00
2023-05-19T17:07:05.236Z,75.90
2023-05-19T17:09:32.334Z,75.20
2023-05-19T17:11:59.221Z,75.60
2023-05-19T17:14:26.141Z,76.60
2023-05-19T17:16:53.116Z,76.10
2023-05-19T17:19:20.069Z,75.50
2023-05-19T17:21:47.089Z,77.80
2023-05-19T17:24:14.008Z,77.50
2023-05-19T17:26:41.177Z,77.30
2023-05-19T17:29:08.152Z,78.70
2023-05-19T17:31:35.271Z,78.20
2023-05-19T17:34:02.215Z,79.70
2023-05-19T17:36:29.141Z,78.70
2023-05-19T17:38:56.298Z,79.10
2023-05-19T17:41:23.212Z,79.80
2023-05-19T17:43:50.154Z,79.90
2023-05-19T17:46:17.090Z,79.70
2023-05-19T17:48:44.087Z,80.90
2023-05-19T17:51:11.697Z,81.00
2023-05-19T17:53:38.867Z,81.70
2023-05-19T17:56:08.856Z,81.90
2023-05-19T17:58:36.354Z,82.10
2023-05-19T18:01:03.397Z,82.20
2023-05-19T18:03:30.866Z,82.20
2023-05-19T18:05:58.756Z,82.40
2023-05-19T18:08:26.155Z,82.70
2023-05-19T18:10:55.090Z,82.70
2023-05-19T18:13:23.589Z,83.20
2023-05-19T18:15:50.671Z,83.40
2023-05-19T18:18:17.695Z,83.80
2023-05-19T18:20:45.727Z,83.60
2023-05-19T18:23:12.663Z,84.00
2023-05-19T18:25:39.587Z,84.60
2023-05-19T18:28:06.613Z,85.00
2023-05-19T18:30:33.842Z,84.90
2023-05-19T18:33:03.873Z,85.40
2023-05-19T18:35:31.167Z,85.50
2023-05-19T18:37:58.103Z,85.80
2023-05-19T18:40:25.149Z,86.20
2023-05-19T18:42:52.101Z,86.70
2023-05-19T18:45:19.107Z,86.80
2023-05-19T18:47:46.427Z,86.90
2023-05-19T18:50:13.768Z,87.40
2023-05-19T18:52:40.952Z,87.90
2023-05-19T18:55:08.189Z,88.40
2023-05-19T18:57:35.144Z,88.50
2023-05-19T19:00:02.145Z,88.50
2023-05-19T19:02:29.466Z,88.80
2023-05-19T19:04:56.611Z,89.10
2023-05-19T19:07:25.330Z,89.50
2023-05-19T19:09:52.257Z,89.60
2023-05-19T19:12:20.412Z,90.00
2023-05-19T19:14:47.610Z,90.00
2023-05-19T19:17:14.717Z,90.10
2023-05-19T19:19:41.853Z,90.20
2023-05-19T19:22:08.903Z,90.30
2023-05-19T19:24:35.933Z,90.80
2023-05-19T19:27:03.045Z,90.70
2023-05-19T19:29:30.016Z,91.00
2023-05-19T19:31:57.112Z,91.00
2023-05-19T19:34:24.110Z,91.20
2023-05-19T19:36:51.144Z,91.30
2023-05-19T19:39:18.186Z,91.20
2023-05-19T19:41:45.195Z,91.20
2023-05-19T19:44:13.575Z,91.30
2023-05-19T19:46:40.624Z,91.20
2023-05-19T19:49:07.570Z,91.20
2023-05-19T19:51:34.598Z,91.20
2023-05-19T19:54:01.516Z,91.30
2023-05-19T19:56:28.576Z,91.20
2023-05-19T19:58:59.015Z,91.40
2023-05-19T20:01:27.610Z,91.50
2023-05-19T20:03:56.148Z,91.50
2023-05-19T20:06:23.466Z,91.50
2023-05-19T20:08:50.510Z,91.30
2023-05-19T20:11:17.652Z,91.40
2023-05-19T20:13:44.575Z,91.50
2023-05-19T20:16:11.602Z,91.50
2023-05-19T20:18:39.564Z,91.50
2023-05-19T20:21:06.913Z,91.60
2023-05-19T20:23:33.935Z,91.60
2023-05-19T20:26:11.845Z,91.50
2023-05-19T20:28:39.874Z,91.40
2023-05-19T20:31:07.154Z,91.50
2023-05-19T20:33:34.352Z,91.60
2023-05-19T20:36:02.174Z,91.60
2023-05-19T20:38:29.031Z,91.70
2023-05-19T20:40:55.992Z,91.80
2023-05-19T20:43:22.985Z,92.00
2023-05-19T20:45:49.965Z,92.10
2023-05-19T20:48:17.117Z,92.10
2023-05-19T20:50:44.192Z,92.30
2023-05-19T20:53:11.133Z,92.40
2023-05-19T20:55:39.375Z,92.40
2023-05-19T20:58:06.372Z,92.60
2023-05-19T21:00:33.772Z,92.30
2023-05-19T21:03:01.442Z,92.40
2023-05-19T21:05:28.595Z,92.50
2023-05-19T21:07:55.532Z,92.70
2023-05-19T21:10:22.489Z,92.80
2023-05-19T21:12:49.389Z,92.90
2023-05-19T21:15:16.542Z,92.90
2023-05-19T21:17:43.468Z,92.90
2023-05-19T21:20:10.952Z,92.80
2023-05-19T21:22:37.929Z,92.80
2023-05-19T21:25:05.265Z,92.80
2023-05-19T21:27:35.364Z,92.80
2023-05-19T21:30:02.614Z,92.90
2023-05-19T21:32:29.769Z,92.90
2023-05-19T21:34:56.779Z,93.10
2023-05-19T21:37:23.758Z,93.20
2023-05-19T21:39:50.807Z,93.30
2023-05-19T21:42:17.689Z,93.30
2023-05-19T21:44:44.615Z,93.50
2023-05-19T21:47:11.496Z,93.50
2023-05-19T21:49:40.063Z,93.60
2023-05-19T21:52:08.040Z,93.80
2023-05-19T21:54:36.121Z,93.80
2023-05-19T21:57:03.115Z,93.80
2023-05-19T21:59:30.890Z,93.90
2023-05-19T22:01:58.440Z,93.90
2023-05-19T22:04:25.611Z,94.00
2023-05-19T22:06:52.536Z,94.20
2023-05-19T22:09:19.479Z,94.50
2023-05-19T22:11:46.374Z,94.50
2023-05-19T22:14:13.585Z,94.70
2023-05-19T22:16:40.571Z,94.70
2023-05-19T22:19:07.578Z,94.80
2023-05-19T22:21:34.550Z,94.90
2023-05-19T22:24:01.454Z,94.90
2023-05-19T22:26:28.558Z,94.90
2023-05-19T22:28:55.745Z,95.20
2023-05-19T22:31:22.667Z,95.30
2023-05-19T22:33:49.576Z,95.50
2023-05-19T22:36:16.794Z,95.50
2023-05-19T22:38:43.723Z,95.60
2023-05-19T22:41:10.664Z,95.70
2023-05-19T22:43:37.688Z,95.80
2023-05-19T22:46:04.902Z,95.80
2023-05-19T22:48:31.822Z,95.90
2023-05-19T22:50:58.822Z,96.00
2023-05-19T22:53:25.705Z,96.00
2023-05-19T22:55:52.675Z,96.10
2023-05-19T22:58:19.555Z,96.00
2023-05-19T23:00:46.403Z,96.20
2023-05-19T23:03:13.413Z,96.40
2023-05-19T23:05:40.581Z,96.50
2023-05-19T23:08:07.599Z,96.70
2023-05-19T23:10:34.519Z,96.60
2023-05-19T23:13:01.500Z,96.70
2023-05-19T23:15:28.370Z,96.80
2023-05-19T23:17:55.380Z,96.80
2023-05-19T23:20:22.390Z,96.90
2023-05-19T23:22:49.282Z,97.00
2023-05-19T23:25:16.336Z,97.10
2023-05-19T23:27:43.354Z,97.20
2023-05-19T23:30:10.431Z,97.30
2023-05-19T23:32:37.437Z,97.40
2023-05-19T23:35:15.718Z,97.50
2023-05-19T23:37:42.731Z,97.50
2023-05-19T23:40:10.436Z,97.50
2023-05-19T23:42:37.616Z,97.60
2023-05-19T23:45:05.183Z,97.60
2023-05-19T23:47:32.252Z,97.80
2023-05-19T23:49:59.122Z,97.90
2023-05-19T23:52:26.017Z,98.30
2023-05-19T23:54:52.919Z,98.30
2023-05-19T23:57:19.842Z,98.60
2023-05-19T23:59:46.810Z,98.50
